sensor_id;sensor_type;location;lat;lon;timestamp;P1;durP1;ratioP1;P2;durP2;ratioP2
64894;SDS011;51588;53.702;10.208;2022-12-18T00:01:28;7.83;;;5.37;;
64894;SDS011;51588;53.702;10.208;2022-12-18T00:03:56;7.63;;;5.60;;
64894;SDS011;51588;53.702;10.208;2022-12-18T00:06:23;6.27;;;5.67;;
64894;SDS011;51588;53.702;10.208;2022-12-18T00:08:49;6.10;;;4.83;;
64894;SDS011;51588;53.702;10.208;2022-12-18T00:11:17;5.67;;;5.07;;
64894;SDS011;51588;53.702;10.208;2022-12-18T00:13:45;10.07;;;5.30;;
64894;SDS011;51588;53.702;10.208;2022-12-18T00:16:12;6.77;;;5.27;;
64894;SDS011;51588;53.702;10.208;2022-12-18T00:18:38;6.83;;;5.00;;
64894;SDS011;51588;53.702;10.208;2022-12-18T00:21:06;7.63;;;5.37;;
64894;SDS011;51588;53.702;10.208;2022-12-18T00:23:33;7.87;;;4.97;;
64894;SDS011;51588;53.702;10.208;2022-12-18T00:26:00;7.07;;;5.40;;
64894;SDS011;51588;53.702;10.208;2022-12-18T00:28:27;5.40;;;4.60;;
64894;SDS011;51588;53.702;10.208;2022-12-18T00:31:00;5.97;;;4.73;;
64894;SDS011;51588;53.702;10.208;2022-12-18T00:33:26;5.70;;;4.63;;
64894;SDS011;51588;53.702;10.208;2022-12-18T00:35:53;6.50;;;5.23;;
64894;SDS011;51588;53.702;10.208;2022-12-18T00:38:19;7.13;;;5.20;;
64894;SDS011;51588;53.702;10.208;2022-12-18T00:40:46;6.03;;;5.43;;
64894;SDS011;51588;53.702;10.208;2022-12-18T00:43:12;6.00;;;4.60;;
64894;SDS011;51588;53.702;10.208;2022-12-18T00:45:37;6.80;;;5.20;;
64894;SDS011;51588;53.702;10.208;2022-12-18T00:48:05;5.93;;;4.80;;
64894;SDS011;51588;53.702;10.208;2022-12-18T00:50:32;5.63;;;4.60;;
64894;SDS011;51588;53.702;10.208;2022-12-18T00:52:58;6.47;;;5.10;;
64894;SDS011;51588;53.702;10.208;2022-12-18T00:55:24;5.40;;;4.90;;
64894;SDS011;51588;53.702;10.208;2022-12-18T00:57:51;6.80;;;5.00;;
64894;SDS011;51588;53.702;10.208;2022-12-18T01:00:18;6.90;;;5.43;;
64894;SDS011;51588;53.702;10.208;2022-12-18T01:02:44;5.97;;;4.97;;
64894;SDS011;51588;53.702;10.208;2022-12-18T01:05:12;6.50;;;4.90;;
64894;SDS011;51588;53.702;10.208;2022-12-18T01:07:38;6.20;;;5.23;;
64894;SDS011;51588;53.702;10.208;2022-12-18T01:10:05;8.07;;;5.10;;
64894;SDS011;51588;53.702;10.208;2022-12-18T01:12:32;6.20;;;5.00;;
64894;SDS011;51588;53.702;10.208;2022-12-18T01:14:58;6.40;;;5.13;;
64894;SDS011;51588;53.702;10.208;2022-12-18T01:17:25;6.13;;;5.30;;
64894;SDS011;51588;53.702;10.208;2022-12-18T01:19:51;5.50;;;4.90;;
64894;SDS011;51588;53.702;10.208;2022-12-18T01:22:19;6.50;;;5.13;;
64894;SDS011;51588;53.702;10.208;2022-12-18T01:24:45;7.23;;;5.13;;
64894;SDS011;51588;53.702;10.208;2022-12-18T01:27:12;9.00;;;5.30;;
64894;SDS011;51588;53.702;10.208;2022-12-18T01:29:38;7.30;;;4.97;;
64894;SDS011;51588;53.702;10.208;2022-12-18T01:32:04;5.03;;;4.17;;
64894;SDS011;51588;53.702;10.208;2022-12-18T01:34:31;6.17;;;4.97;;
64894;SDS011;51588;53.702;10.208;2022-12-18T01:36:57;5.83;;;5.07;;
64894;SDS011;51588;53.702;10.208;2022-12-18T01:39:25;6.30;;;4.83;;
64894;SDS011;51588;53.702;10.208;2022-12-18T01:41:51;4.87;;;4.37;;
64894;SDS011;51588;53.702;10.208;2022-12-18T01:44:50;6.17;;;5.00;;
64894;SDS011;51588;53.702;10.208;2022-12-18T01:47:20;5.93;;;4.73;;
64894;SDS011;51588;53.702;10.208;2022-12-18T01:49:46;5.43;;;4.60;;
64894;SDS011;51588;53.702;10.208;2022-12-18T01:52:12;6.50;;;4.97;;
64894;SDS011;51588;53.702;10.208;2022-12-18T01:54:40;6.93;;;5.10;;
64894;SDS011;51588;53.702;10.208;2022-12-18T01:57:07;6.60;;;5.60;;
64894;SDS011;51588;53.702;10.208;2022-12-18T01:59:33;5.33;;;4.73;;
64894;SDS011;51588;53.702;10.208;2022-12-18T02:02:01;5.37;;;4.60;;
64894;SDS011;51588;53.702;10.208;2022-12-18T02:04:28;5.23;;;4.73;;
64894;SDS011;51588;53.702;10.208;2022-12-18T02:06:56;8.33;;;4.70;;
64894;SDS011;51588;53.702;10.208;2022-12-18T02:09:25;5.70;;;4.83;;
64894;SDS011;51588;53.702;10.208;2022-12-18T02:11:57;5.87;;;4.87;;
64894;SDS011;51588;53.702;10.208;2022-12-18T02:14:27;6.43;;;5.10;;
64894;SDS011;51588;53.702;10.208;2022-12-18T02:16:57;5.20;;;4.70;;
64894;SDS011;51588;53.702;10.208;2022-12-18T02:19:35;5.90;;;4.83;;
64894;SDS011;51588;53.702;10.208;2022-12-18T02:22:05;5.40;;;4.83;;
64894;SDS011;51588;53.702;10.208;2022-12-18T02:24:33;5.73;;;4.57;;
64894;SDS011;51588;53.702;10.208;2022-12-18T02:27:02;5.60;;;4.60;;
64894;SDS011;51588;53.702;10.208;2022-12-18T02:29:31;5.00;;;4.30;;
64894;SDS011;51588;53.702;10.208;2022-12-18T02:31:58;4.87;;;4.00;;
64894;SDS011;51588;53.702;10.208;2022-12-18T02:34:27;5.30;;;4.40;;
64894;SDS011;51588;53.702;10.208;2022-12-18T02:36:54;5.40;;;4.30;;
64894;SDS011;51588;53.702;10.208;2022-12-18T02:39:21;6.17;;;5.00;;
64894;SDS011;51588;53.702;10.208;2022-12-18T02:41:49;5.77;;;4.67;;
64894;SDS011;51588;53.702;10.208;2022-12-18T02:44:18;5.33;;;4.80;;
64894;SDS011;51588;53.702;10.208;2022-12-18T02:46:45;5.60;;;4.50;;
64894;SDS011;51588;53.702;10.208;2022-12-18T02:49:15;5.80;;;4.40;;
64894;SDS011;51588;53.702;10.208;2022-12-18T02:51:48;5.07;;;4.50;;
64894;SDS011;51588;53.702;10.208;2022-12-18T02:54:18;5.20;;;4.53;;
64894;SDS011;51588;53.702;10.208;2022-12-18T02:56:49;5.87;;;4.27;;
64894;SDS011;51588;53.702;10.208;2022-12-18T02:59:18;5.53;;;4.20;;
64894;SDS011;51588;53.702;10.208;2022-12-18T03:01:48;6.17;;;4.70;;
64894;SDS011;51588;53.702;10.208;2022-12-18T03:04:17;4.30;;;3.90;;
64894;SDS011;51588;53.702;10.208;2022-12-18T03:06:47;5.90;;;4.90;;
64894;SDS011;51588;53.702;10.208;2022-12-18T03:09:16;4.80;;;4.07;;
64894;SDS011;51588;53.702;10.208;2022-12-18T03:11:45;5.70;;;4.33;;
64894;SDS011;51588;53.702;10.208;2022-12-18T03:14:31;5.70;;;4.30;;
64894;SDS011;51588;53.702;10.208;2022-12-18T03:16:59;4.50;;;4.10;;
64894;SDS011;51588;53.702;10.208;2022-12-18T03:19:27;4.87;;;4.37;;
64894;SDS011;51588;53.702;10.208;2022-12-18T03:21:55;4.80;;;4.30;;
64894;SDS011;51588;53.702;10.208;2022-12-18T03:24:22;5.30;;;4.80;;
64894;SDS011;51588;53.702;10.208;2022-12-18T03:26:50;5.80;;;4.40;;
64894;SDS011;51588;53.702;10.208;2022-12-18T03:29:18;4.83;;;4.10;;
64894;SDS011;51588;53.702;10.208;2022-12-18T03:31:49;5.57;;;4.47;;
64894;SDS011;51588;53.702;10.208;2022-12-18T03:34:17;6.10;;;4.60;;
64894;SDS011;51588;53.702;10.208;2022-12-18T03:36:45;5.40;;;4.50;;
64894;SDS011;51588;53.702;10.208;2022-12-18T03:39:12;6.07;;;4.80;;
64894;SDS011;51588;53.702;10.208;2022-12-18T03:41:41;5.17;;;4.30;;
64894;SDS011;51588;53.702;10.208;2022-12-18T03:44:11;5.00;;;3.70;;
64894;SDS011;51588;53.702;10.208;2022-12-18T03:46:41;5.50;;;4.00;;
64894;SDS011;51588;53.702;10.208;2022-12-18T03:49:11;4.47;;;4.00;;
64894;SDS011;51588;53.702;10.208;2022-12-18T03:51:40;5.80;;;4.70;;
64894;SDS011;51588;53.702;10.208;2022-12-18T03:54:09;4.47;;;4.03;;
64894;SDS011;51588;53.702;10.208;2022-12-18T03:56:37;4.67;;;4.03;;
64894;SDS011;51588;53.702;10.208;2022-12-18T03:59:04;6.60;;;3.80;;
64894;SDS011;51588;53.702;10.208;2022-12-18T04:01:32;4.30;;;3.90;;
64894;SDS011;51588;53.702;10.208;2022-12-18T04:04:00;4.67;;;4.17;;
64894;SDS011;51588;53.702;10.208;2022-12-18T04:06:28;4.50;;;4.10;;
64894;SDS011;51588;53.702;10.208;2022-12-18T04:08:56;4.67;;;3.63;;
64894;SDS011;51588;53.702;10.208;2022-12-18T04:11:22;5.63;;;3.83;;
64894;SDS011;51588;53.702;10.208;2022-12-18T04:13:48;3.97;;;3.60;;
64894;SDS011;51588;53.702;10.208;2022-12-18T04:16:15;4.10;;;3.60;;
64894;SDS011;51588;53.702;10.208;2022-12-18T04:18:41;5.20;;;4.10;;
64894;SDS011;51588;53.702;10.208;2022-12-18T04:21:08;4.43;;;4.03;;
64894;SDS011;51588;53.702;10.208;2022-12-18T04:23:35;4.70;;;4.00;;
64894;SDS011;51588;53.702;10.208;2022-12-18T04:26:02;4.93;;;4.27;;
64894;SDS011;51588;53.702;10.208;2022-12-18T04:28:28;4.20;;;3.60;;
64894;SDS011;51588;53.702;10.208;2022-12-18T04:30:54;3.83;;;3.53;;
64894;SDS011;51588;53.702;10.208;2022-12-18T04:33:21;5.93;;;4.10;;
64894;SDS011;51588;53.702;10.208;2022-12-18T04:35:47;4.17;;;3.70;;
64894;SDS011;51588;53.702;10.208;2022-12-18T04:38:14;5.07;;;4.57;;
64894;SDS011;51588;53.702;10.208;2022-12-18T04:40:41;4.13;;;3.73;;
64894;SDS011;51588;53.702;10.208;2022-12-18T04:43:08;5.33;;;4.00;;
64894;SDS011;51588;53.702;10.208;2022-12-18T04:45:35;4.40;;;3.90;;
64894;SDS011;51588;53.702;10.208;2022-12-18T04:48:02;4.50;;;3.90;;
64894;SDS011;51588;53.702;10.208;2022-12-18T04:50:29;4.80;;;3.40;;
64894;SDS011;51588;53.702;10.208;2022-12-18T04:52:55;4.40;;;4.00;;
64894;SDS011;51588;53.702;10.208;2022-12-18T04:55:25;3.70;;;3.40;;
64894;SDS011;51588;53.702;10.208;2022-12-18T04:57:53;4.07;;;3.50;;
64894;SDS011;51588;53.702;10.208;2022-12-18T05:00:20;4.77;;;3.70;;
64894;SDS011;51588;53.702;10.208;2022-12-18T05:02:46;4.17;;;3.77;;
64894;SDS011;51588;53.702;10.208;2022-12-18T05:05:13;6.03;;;4.00;;
64894;SDS011;51588;53.702;10.208;2022-12-18T05:07:39;4.50;;;3.67;;
64894;SDS011;51588;53.702;10.208;2022-12-18T05:10:06;4.17;;;3.77;;
64894;SDS011;51588;53.702;10.208;2022-12-18T05:12:32;5.07;;;4.07;;
64894;SDS011;51588;53.702;10.208;2022-12-18T05:15:20;3.80;;;3.43;;
64894;SDS011;51588;53.702;10.208;2022-12-18T05:17:46;4.33;;;3.63;;
64894;SDS011;51588;53.702;10.208;2022-12-18T05:20:13;4.93;;;3.80;;
64894;SDS011;51588;53.702;10.208;2022-12-18T05:22:40;4.50;;;3.60;;
64894;SDS011;51588;53.702;10.208;2022-12-18T05:25:06;4.80;;;3.97;;
64894;SDS011;51588;53.702;10.208;2022-12-18T05:27:33;6.60;;;3.50;;
64894;SDS011;51588;53.702;10.208;2022-12-18T05:29:59;4.47;;;3.87;;
64894;SDS011;51588;53.702;10.208;2022-12-18T05:32:27;3.70;;;3.27;;
64894;SDS011;51588;53.702;10.208;2022-12-18T05:34:54;4.10;;;3.70;;
64894;SDS011;51588;53.702;10.208;2022-12-18T05:37:22;4.80;;;4.00;;
64894;SDS011;51588;53.702;10.208;2022-12-18T05:39:48;4.60;;;3.90;;
64894;SDS011;51588;53.702;10.208;2022-12-18T05:42:15;4.40;;;3.80;;
64894;SDS011;51588;53.702;10.208;2022-12-18T05:44:41;4.53;;;3.50;;
64894;SDS011;51588;53.702;10.208;2022-12-18T05:47:07;4.90;;;4.00;;
64894;SDS011;51588;53.702;10.208;2022-12-18T05:49:35;3.93;;;3.53;;
64894;SDS011;51588;53.702;10.208;2022-12-18T05:52:01;4.43;;;3.70;;
64894;SDS011;51588;53.702;10.208;2022-12-18T05:54:28;3.97;;;3.57;;
64894;SDS011;51588;53.702;10.208;2022-12-18T05:56:54;5.10;;;3.67;;
64894;SDS011;51588;53.702;10.208;2022-12-18T05:59:20;3.30;;;3.00;;
64894;SDS011;51588;53.702;10.208;2022-12-18T06:01:47;3.93;;;3.43;;
64894;SDS011;51588;53.702;10.208;2022-12-18T06:04:13;4.27;;;3.87;;
64894;SDS011;51588;53.702;10.208;2022-12-18T06:06:41;4.27;;;3.43;;
64894;SDS011;51588;53.702;10.208;2022-12-18T06:09:08;4.07;;;3.67;;
64894;SDS011;51588;53.702;10.208;2022-12-18T06:11:34;4.63;;;3.77;;
64894;SDS011;51588;53.702;10.208;2022-12-18T06:14:01;4.13;;;3.70;;
64894;SDS011;51588;53.702;10.208;2022-12-18T06:16:28;3.80;;;3.50;;
64894;SDS011;51588;53.702;10.208;2022-12-18T06:18:55;4.00;;;3.60;;
64894;SDS011;51588;53.702;10.208;2022-12-18T06:21:22;4.80;;;4.00;;
64894;SDS011;51588;53.702;10.208;2022-12-18T06:23:49;5.33;;;4.00;;
64894;SDS011;51588;53.702;10.208;2022-12-18T06:26:16;5.67;;;3.87;;
64894;SDS011;51588;53.702;10.208;2022-12-18T06:28:42;5.07;;;3.90;;
64894;SDS011;51588;53.702;10.208;2022-12-18T06:31:09;4.93;;;3.83;;
64894;SDS011;51588;53.702;10.208;2022-12-18T06:33:36;5.73;;;3.83;;
64894;SDS011;51588;53.702;10.208;2022-12-18T06:36:03;6.47;;;4.47;;
64894;SDS011;51588;53.702;10.208;2022-12-18T06:38:30;4.17;;;3.77;;
64894;SDS011;51588;53.702;10.208;2022-12-18T06:40:58;4.00;;;3.60;;
64894;SDS011;51588;53.702;10.208;2022-12-18T06:43:25;4.47;;;3.80;;
64894;SDS011;51588;53.702;10.208;2022-12-18T06:45:57;4.20;;;3.80;;
64894;SDS011;51588;53.702;10.208;2022-12-18T06:48:23;4.33;;;3.90;;
64894;SDS011;51588;53.702;10.208;2022-12-18T06:50:49;4.47;;;4.00;;
64894;SDS011;51588;53.702;10.208;2022-12-18T06:53:16;4.90;;;4.17;;
64894;SDS011;51588;53.702;10.208;2022-12-18T06:55:42;6.30;;;3.97;;
64894;SDS011;51588;53.702;10.208;2022-12-18T06:58:10;3.80;;;3.37;;
64894;SDS011;51588;53.702;10.208;2022-12-18T07:00:36;4.10;;;3.60;;
64894;SDS011;51588;53.702;10.208;2022-12-18T07:03:03;4.73;;;3.67;;
64894;SDS011;51588;53.702;10.208;2022-12-18T07:05:29;4.07;;;3.67;;
64894;SDS011;51588;53.702;10.208;2022-12-18T07:07:55;5.17;;;4.03;;
64894;SDS011;51588;53.702;10.208;2022-12-18T07:10:22;3.63;;;3.30;;
64894;SDS011;51588;53.702;10.208;2022-12-18T07:12:48;4.17;;;3.60;;
64894;SDS011;51588;53.702;10.208;2022-12-18T07:15:18;4.87;;;3.90;;
64894;SDS011;51588;53.702;10.208;2022-12-18T07:17:45;4.50;;;4.03;;
64894;SDS011;51588;53.702;10.208;2022-12-18T07:20:11;6.60;;;3.90;;
64894;SDS011;51588;53.702;10.208;2022-12-18T07:22:37;4.47;;;4.00;;
64894;SDS011;51588;53.702;10.208;2022-12-18T07:25:04;4.43;;;3.97;;
64894;SDS011;51588;53.702;10.208;2022-12-18T07:27:31;4.50;;;3.90;;
64894;SDS011;51588;53.702;10.208;2022-12-18T07:29:57;4.57;;;4.17;;
64894;SDS011;51588;53.702;10.208;2022-12-18T07:32:25;4.57;;;4.13;;
64894;SDS011;51588;53.702;10.208;2022-12-18T07:34:51;4.73;;;3.87;;
64894;SDS011;51588;53.702;10.208;2022-12-18T07:37:18;4.87;;;4.10;;
64894;SDS011;51588;53.702;10.208;2022-12-18T07:39:44;3.40;;;3.10;;
64894;SDS011;51588;53.702;10.208;2022-12-18T07:42:10;4.30;;;3.90;;
64894;SDS011;51588;53.702;10.208;2022-12-18T07:44:54;4.53;;;4.13;;
64894;SDS011;51588;53.702;10.208;2022-12-18T07:47:21;5.57;;;3.87;;
64894;SDS011;51588;53.702;10.208;2022-12-18T07:49:49;4.33;;;3.93;;
64894;SDS011;51588;53.702;10.208;2022-12-18T07:52:15;5.30;;;3.77;;
64894;SDS011;51588;53.702;10.208;2022-12-18T07:54:42;4.27;;;3.87;;
64894;SDS011;51588;53.702;10.208;2022-12-18T07:57:08;3.87;;;3.47;;
64894;SDS011;51588;53.702;10.208;2022-12-18T07:59:34;4.60;;;3.90;;
64894;SDS011;51588;53.702;10.208;2022-12-18T08:02:01;4.13;;;3.73;;
64894;SDS011;51588;53.702;10.208;2022-12-18T08:04:28;4.03;;;3.63;;
64894;SDS011;51588;53.702;10.208;2022-12-18T08:06:55;7.77;;;4.10;;
64894;SDS011;51588;53.702;10.208;2022-12-18T08:09:22;4.00;;;3.60;;
64894;SDS011;51588;53.702;10.208;2022-12-18T08:11:48;3.60;;;3.30;;
64894;SDS011;51588;53.702;10.208;2022-12-18T08:14:14;5.63;;;3.67;;
64894;SDS011;51588;53.702;10.208;2022-12-18T08:16:41;4.10;;;3.47;;
64894;SDS011;51588;53.702;10.208;2022-12-18T08:19:07;4.80;;;3.60;;
64894;SDS011;51588;53.702;10.208;2022-12-18T08:21:34;4.80;;;4.30;;
64894;SDS011;51588;53.702;10.208;2022-12-18T08:24:01;4.07;;;3.67;;
64894;SDS011;51588;53.702;10.208;2022-12-18T08:26:29;4.00;;;3.60;;
64894;SDS011;51588;53.702;10.208;2022-12-18T08:28:55;5.37;;;3.57;;
64894;SDS011;51588;53.702;10.208;2022-12-18T08:31:22;4.73;;;3.40;;
64894;SDS011;51588;53.702;10.208;2022-12-18T08:33:49;4.67;;;3.90;;
64894;SDS011;51588;53.702;10.208;2022-12-18T08:36:15;4.23;;;3.73;;
64894;SDS011;51588;53.702;10.208;2022-12-18T08:38:42;6.70;;;4.00;;
64894;SDS011;51588;53.702;10.208;2022-12-18T08:41:10;4.13;;;3.70;;
64894;SDS011;51588;53.702;10.208;2022-12-18T08:43:37;5.00;;;4.47;;
64894;SDS011;51588;53.702;10.208;2022-12-18T08:46:21;4.97;;;4.47;;
64894;SDS011;51588;53.702;10.208;2022-12-18T08:48:50;9.73;;;4.37;;
64894;SDS011;51588;53.702;10.208;2022-12-18T08:51:17;7.53;;;4.10;;
64894;SDS011;51588;53.702;10.208;2022-12-18T08:53:43;8.10;;;4.40;;
64894;SDS011;51588;53.702;10.208;2022-12-18T08:56:12;13.60;;;5.23;;
64894;SDS011;51588;53.702;10.208;2022-12-18T08:58:38;24.53;;;6.67;;
64894;SDS011;51588;53.702;10.208;2022-12-18T09:01:05;14.30;;;6.37;;
64894;SDS011;51588;53.702;10.208;2022-12-18T09:03:32;15.63;;;5.70;;
64894;SDS011;51588;53.702;10.208;2022-12-18T09:05:59;22.03;;;6.30;;
64894;SDS011;51588;53.702;10.208;2022-12-18T09:08:25;17.90;;;5.67;;
64894;SDS011;51588;53.702;10.208;2022-12-18T09:10:52;13.47;;;5.70;;
64894;SDS011;51588;53.702;10.208;2022-12-18T09:13:19;18.40;;;6.03;;
64894;SDS011;51588;53.702;10.208;2022-12-18T09:15:46;17.53;;;6.83;;
64894;SDS011;51588;53.702;10.208;2022-12-18T09:18:13;20.20;;;5.97;;
64894;SDS011;51588;53.702;10.208;2022-12-18T09:20:39;20.87;;;6.60;;
64894;SDS011;51588;53.702;10.208;2022-12-18T09:23:06;13.57;;;6.50;;
64894;SDS011;51588;53.702;10.208;2022-12-18T09:25:33;16.43;;;6.30;;
64894;SDS011;51588;53.702;10.208;2022-12-18T09:28:03;13.97;;;6.37;;
64894;SDS011;51588;53.702;10.208;2022-12-18T09:30:30;11.60;;;6.20;;
64894;SDS011;51588;53.702;10.208;2022-12-18T09:32:58;12.03;;;6.40;;
64894;SDS011;51588;53.702;10.208;2022-12-18T09:35:24;11.97;;;6.97;;
64894;SDS011;51588;53.702;10.208;2022-12-18T09:37:53;12.03;;;6.40;;
64894;SDS011;51588;53.702;10.208;2022-12-18T09:40:20;26.03;;;7.67;;
64894;SDS011;51588;53.702;10.208;2022-12-18T09:42:48;29.97;;;7.00;;
64894;SDS011;51588;53.702;10.208;2022-12-18T09:45:17;16.67;;;6.70;;
64894;SDS011;51588;53.702;10.208;2022-12-18T09:47:45;17.60;;;7.10;;
64894;SDS011;51588;53.702;10.208;2022-12-18T09:50:16;16.07;;;6.23;;
64894;SDS011;51588;53.702;10.208;2022-12-18T09:52:48;10.67;;;6.30;;
64894;SDS011;51588;53.702;10.208;2022-12-18T09:55:17;18.47;;;9.90;;
64894;SDS011;51588;53.702;10.208;2022-12-18T09:57:47;35.07;;;15.40;;
64894;SDS011;51588;53.702;10.208;2022-12-18T10:00:16;41.80;;;18.87;;
64894;SDS011;51588;53.702;10.208;2022-12-18T10:02:43;42.73;;;16.13;;
64894;SDS011;51588;53.702;10.208;2022-12-18T10:05:12;35.27;;;15.53;;
64894;SDS011;51588;53.702;10.208;2022-12-18T10:07:43;39.00;;;17.33;;
64894;SDS011;51588;53.702;10.208;2022-12-18T10:10:14;35.17;;;16.60;;
64894;SDS011;51588;53.702;10.208;2022-12-18T10:12:44;35.88;;;18.08;;
64894;SDS011;51588;53.702;10.208;2022-12-18T10:15:15;41.80;;;17.40;;
64894;SDS011;51588;53.702;10.208;2022-12-18T10:17:45;34.70;;;16.30;;
64894;SDS011;51588;53.702;10.208;2022-12-18T10:20:17;38.27;;;16.97;;
64894;SDS011;51588;53.702;10.208;2022-12-18T10:22:49;44.33;;;16.70;;
64894;SDS011;51588;53.702;10.208;2022-12-18T10:25:19;33.50;;;17.00;;
64894;SDS011;51588;53.702;10.208;2022-12-18T10:27:47;32.53;;;16.23;;
64894;SDS011;51588;53.702;10.208;2022-12-18T10:30:16;35.17;;;16.53;;
64894;SDS011;51588;53.702;10.208;2022-12-18T10:32:43;33.80;;;15.60;;
64894;SDS011;51588;53.702;10.208;2022-12-18T10:35:11;43.73;;;17.00;;
64894;SDS011;51588;53.702;10.208;2022-12-18T10:40:24;29.17;;;14.93;;
64894;SDS011;51588;53.702;10.208;2022-12-18T10:42:57;32.07;;;15.13;;
64894;SDS011;51588;53.702;10.208;2022-12-18T10:45:29;31.30;;;15.00;;
64894;SDS011;51588;53.702;10.208;2022-12-18T10:47:55;35.10;;;15.57;;
64894;SDS011;51588;53.702;10.208;2022-12-18T10:50:24;30.47;;;15.63;;
64894;SDS011;51588;53.702;10.208;2022-12-18T10:52:55;33.67;;;15.53;;
64894;SDS011;51588;53.702;10.208;2022-12-18T10:55:21;36.37;;;16.00;;
64894;SDS011;51588;53.702;10.208;2022-12-18T10:57:49;45.87;;;16.43;;
64894;SDS011;51588;53.702;10.208;2022-12-18T11:00:21;32.47;;;15.17;;
64894;SDS011;51588;53.702;10.208;2022-12-18T11:02:48;33.97;;;16.10;;
64894;SDS011;51588;53.702;10.208;2022-12-18T11:05:25;34.03;;;15.73;;
64894;SDS011;51588;53.702;10.208;2022-12-18T11:07:52;33.37;;;16.17;;
64894;SDS011;51588;53.702;10.208;2022-12-18T11:10:19;33.03;;;14.73;;
64894;SDS011;51588;53.702;10.208;2022-12-18T11:12:46;27.50;;;15.20;;
64894;SDS011;51588;53.702;10.208;2022-12-18T11:15:16;28.53;;;15.00;;
64894;SDS011;51588;53.702;10.208;2022-12-18T11:17:44;35.97;;;15.43;;
64894;SDS011;51588;53.702;10.208;2022-12-18T11:20:19;29.73;;;15.23;;
64894;SDS011;51588;53.702;10.208;2022-12-18T11:22:53;29.77;;;14.60;;
64894;SDS011;51588;53.702;10.208;2022-12-18T11:25:20;27.50;;;15.20;;
64894;SDS011;51588;53.702;10.208;2022-12-18T11:27:47;36.80;;;15.10;;
64894;SDS011;51588;53.702;10.208;2022-12-18T11:30:20;28.77;;;15.03;;
64894;SDS011;51588;53.702;10.208;2022-12-18T11:32:46;26.63;;;13.50;;
64894;SDS011;51588;53.702;10.208;2022-12-18T11:35:15;26.43;;;13.53;;
64894;SDS011;51588;53.702;10.208;2022-12-18T11:37:44;24.80;;;13.57;;
64894;SDS011;51588;53.702;10.208;2022-12-18T11:40:13;24.50;;;13.13;;
64894;SDS011;51588;53.702;10.208;2022-12-18T11:42:42;22.07;;;11.63;;
64894;SDS011;51588;53.702;10.208;2022-12-18T11:45:20;19.43;;;10.83;;
64894;SDS011;51588;53.702;10.208;2022-12-18T11:47:49;22.80;;;11.93;;
64894;SDS011;51588;53.702;10.208;2022-12-18T11:50:19;25.50;;;11.40;;
64894;SDS011;51588;53.702;10.208;2022-12-18T11:52:47;19.40;;;11.80;;
64894;SDS011;51588;53.702;10.208;2022-12-18T11:55:14;24.60;;;11.53;;
64894;SDS011;51588;53.702;10.208;2022-12-18T11:57:44;24.10;;;12.10;;
64894;SDS011;51588;53.702;10.208;2022-12-18T12:00:15;20.53;;;11.27;;
64894;SDS011;51588;53.702;10.208;2022-12-18T12:02:47;19.37;;;11.50;;
64894;SDS011;51588;53.702;10.208;2022-12-18T12:05:25;19.30;;;11.07;;
64894;SDS011;51588;53.702;10.208;2022-12-18T12:07:57;20.10;;;12.20;;
64894;SDS011;51588;53.702;10.208;2022-12-18T12:10:30;24.00;;;11.70;;
64894;SDS011;51588;53.702;10.208;2022-12-18T12:13:02;26.73;;;11.83;;
64894;SDS011;51588;53.702;10.208;2022-12-18T12:15:36;24.00;;;11.70;;
64894;SDS011;51588;53.702;10.208;2022-12-18T12:18:08;18.40;;;10.90;;
64894;SDS011;51588;53.702;10.208;2022-12-18T12:20:40;17.97;;;11.10;;
64894;SDS011;51588;53.702;10.208;2022-12-18T12:23:11;21.03;;;11.87;;
64894;SDS011;51588;53.702;10.208;2022-12-18T12:25:41;18.70;;;12.27;;
64894;SDS011;51588;53.702;10.208;2022-12-18T12:28:14;19.70;;;10.53;;
64894;SDS011;51588;53.702;10.208;2022-12-18T12:30:45;15.57;;;10.47;;
64894;SDS011;51588;53.702;10.208;2022-12-18T12:33:19;22.83;;;10.83;;
64894;SDS011;51588;53.702;10.208;2022-12-18T12:35:51;20.13;;;11.30;;
64894;SDS011;51588;53.702;10.208;2022-12-18T12:38:19;19.00;;;11.57;;
64894;SDS011;51588;53.702;10.208;2022-12-18T12:40:48;22.10;;;11.70;;
64894;SDS011;51588;53.702;10.208;2022-12-18T12:43:20;20.40;;;12.27;;
64894;SDS011;51588;53.702;10.208;2022-12-18T12:45:47;19.07;;;10.97;;
64894;SDS011;51588;53.702;10.208;2022-12-18T12:48:18;19.33;;;11.20;;
64894;SDS011;51588;53.702;10.208;2022-12-18T12:50:45;17.07;;;11.20;;
64894;SDS011;51588;53.702;10.208;2022-12-18T12:53:14;17.60;;;10.50;;
64894;SDS011;51588;53.702;10.208;2022-12-18T12:55:42;16.07;;;10.87;;
64894;SDS011;51588;53.702;10.208;2022-12-18T12:58:11;16.60;;;10.70;;
64894;SDS011;51588;53.702;10.208;2022-12-18T13:00:44;13.13;;;9.73;;
64894;SDS011;51588;53.702;10.208;2022-12-18T13:03:14;15.13;;;10.43;;
64894;SDS011;51588;53.702;10.208;2022-12-18T13:05:43;14.60;;;10.33;;
64894;SDS011;51588;53.702;10.208;2022-12-18T13:08:12;14.03;;;9.70;;
64894;SDS011;51588;53.702;10.208;2022-12-18T13:10:47;14.30;;;10.03;;
64894;SDS011;51588;53.702;10.208;2022-12-18T13:13:14;13.87;;;10.77;;
64894;SDS011;51588;53.702;10.208;2022-12-18T13:15:41;18.70;;;10.70;;
64894;SDS011;51588;53.702;10.208;2022-12-18T13:18:13;15.63;;;10.03;;
64894;SDS011;51588;53.702;10.208;2022-12-18T13:20:41;13.07;;;9.13;;
64894;SDS011;51588;53.702;10.208;2022-12-18T13:26:00;15.77;;;10.63;;
64894;SDS011;51588;53.702;10.208;2022-12-18T13:28:50;13.47;;;9.67;;
64894;SDS011;51588;53.702;10.208;2022-12-18T13:34:09;16.30;;;10.20;;
64894;SDS011;51588;53.702;10.208;2022-12-18T13:36:39;16.60;;;9.97;;
64894;SDS011;51588;53.702;10.208;2022-12-18T13:39:20;17.87;;;9.70;;
64894;SDS011;51588;53.702;10.208;2022-12-18T13:41:49;21.43;;;11.00;;
64894;SDS011;51588;53.702;10.208;2022-12-18T13:44:22;19.13;;;12.20;;
64894;SDS011;51588;53.702;10.208;2022-12-18T13:46:50;24.50;;;11.20;;
64894;SDS011;51588;53.702;10.208;2022-12-18T13:49:20;21.63;;;11.63;;
64894;SDS011;51588;53.702;10.208;2022-12-18T13:51:48;24.27;;;11.80;;
64894;SDS011;51588;53.702;10.208;2022-12-18T13:54:17;20.40;;;12.10;;
64894;SDS011;51588;53.702;10.208;2022-12-18T13:56:45;23.27;;;11.80;;
64894;SDS011;51588;53.702;10.208;2022-12-18T13:59:14;20.07;;;10.90;;
64894;SDS011;51588;53.702;10.208;2022-12-18T14:01:41;18.10;;;10.70;;
64894;SDS011;51588;53.702;10.208;2022-12-18T14:04:08;18.10;;;10.50;;
64894;SDS011;51588;53.702;10.208;2022-12-18T14:06:35;20.77;;;10.93;;
64894;SDS011;51588;53.702;10.208;2022-12-18T14:09:02;20.17;;;11.37;;
64894;SDS011;51588;53.702;10.208;2022-12-18T14:11:28;18.63;;;10.57;;
64894;SDS011;51588;53.702;10.208;2022-12-18T14:13:55;18.80;;;10.87;;
64894;SDS011;51588;53.702;10.208;2022-12-18T14:16:23;20.17;;;10.30;;
64894;SDS011;51588;53.702;10.208;2022-12-18T14:18:51;19.13;;;10.30;;
64894;SDS011;51588;53.702;10.208;2022-12-18T14:21:20;18.57;;;10.47;;
64894;SDS011;51588;53.702;10.208;2022-12-18T14:23:47;15.77;;;9.97;;
64894;SDS011;51588;53.702;10.208;2022-12-18T14:26:22;19.93;;;10.53;;
64894;SDS011;51588;53.702;10.208;2022-12-18T14:28:48;23.20;;;10.40;;
64894;SDS011;51588;53.702;10.208;2022-12-18T14:31:18;20.33;;;9.90;;
64894;SDS011;51588;53.702;10.208;2022-12-18T14:33:47;17.00;;;9.90;;
64894;SDS011;51588;53.702;10.208;2022-12-18T14:36:15;18.33;;;9.80;;
64894;SDS011;51588;53.702;10.208;2022-12-18T14:38:42;18.10;;;10.07;;
64894;SDS011;51588;53.702;10.208;2022-12-18T14:41:10;19.97;;;10.20;;